sensor_id;sensor_type;location;lat;lon;timestamp;temperature;humidity
34877;DHT22;21086;44.780;17.194;2023-04-25T00:00:20;12.20;99.90
34877;DHT22;21086;44.780;17.194;2023-04-25T00:02:47;12.20;99.90
34877;DHT22;21086;44.780;17.194;2023-04-25T00:05:15;12.10;99.90
34877;DHT22;21086;44.780;17.194;2023-04-25T00:07:43;12.10;99.90
34877;DHT22;21086;44.780;17.194;2023-04-25T00:10:10;12.20;99.90
34877;DHT22;21086;44.780;17.194;2023-04-25T00:12:40;12.10;99.90
34877;DHT22;21086;44.780;17.194;2023-04-25T00:15:09;12.20;99.90
34877;DHT22;21086;44.780;17.194;2023-04-25T00:17:37;12.20;99.90
34877;DHT22;21086;44.780;17.194;2023-04-25T00:20:06;12.20;99.90
34877;DHT22;21086;44.780;17.194;2023-04-25T00:22:35;12.20;99.90
34877;DHT22;21086;44.780;17.194;2023-04-25T00:25:05;12.00;99.90
34877;DHT22;21086;44.780;17.194;2023-04-25T00:27:33;12.00;99.90
34877;DHT22;21086;44.780;17.194;2023-04-25T00:30:00;11.80;99.90
34877;DHT22;21086;44.780;17.194;2023-04-25T00:32:27;12.00;99.90
34877;DHT22;21086;44.780;17.194;2023-04-25T00:34:55;10.60;99.90
34877;DHT22;21086;44.780;17.194;2023-04-25T00:37:24;11.00;99.90
34877;DHT22;21086;44.780;17.194;2023-04-25T00:39:52;10.50;99.90
34877;DHT22;21086;44.780;17.194;2023-04-25T00:42:20;12.00;99.90
34877;DHT22;21086;44.780;17.194;2023-04-25T00:44:47;12.00;99.90
34877;DHT22;21086;44.780;17.194;2023-04-25T00:47:15;12.00;99.90
34877;DHT22;21086;44.780;17.194;2023-04-25T00:49:42;12.00;99.90
34877;DHT22;21086;44.780;17.194;2023-04-25T00:52:10;12.00;99.90
34877;DHT22;21086;44.780;17.194;2023-04-25T00:54:38;12.00;99.90
34877;DHT22;21086;44.780;17.194;2023-04-25T00:57:05;12.10;99.90
34877;DHT22;21086;44.780;17.194;2023-04-25T00:59:33;12.10;99.90
34877;DHT22;21086;44.780;17.194;2023-04-25T01:02:00;12.20;99.90
34877;DHT22;21086;44.780;17.194;2023-04-25T01:04:27;12.10;99.90
34877;DHT22;21086;44.780;17.194;2023-04-25T01:06:55;12.00;99.90
34877;DHT22;21086;44.780;17.194;2023-04-25T01:09:24;12.00;99.90
34877;DHT22;21086;44.780;17.194;2023-04-25T01:11:52;11.90;99.90
34877;DHT22;21086;44.780;17.194;2023-04-25T01:14:19;11.90;99.90
34877;DHT22;21086;44.780;17.194;2023-04-25T01:16:46;11.90;99.90
34877;DHT22;21086;44.780;17.194;2023-04-25T01:19:16;12.00;99.90
34877;DHT22;21086;44.780;17.194;2023-04-25T01:21:45;12.00;99.90
34877;DHT22;21086;44.780;17.194;2023-04-25T01:24:13;12.00;99.90
34877;DHT22;21086;44.780;17.194;2023-04-25T01:26:41;12.00;99.90
34877;DHT22;21086;44.780;17.194;2023-04-25T01:29:11;12.00;99.90
34877;DHT22;21086;44.780;17.194;2023-04-25T01:31:38;12.00;99.90
34877;DHT22;21086;44.780;17.194;2023-04-25T01:34:06;12.10;99.90
34877;DHT22;21086;44.780;17.194;2023-04-25T01:36:34;12.10;99.90
34877;DHT22;21086;44.780;17.194;2023-04-25T01:39:01;12.00;99.90
34877;DHT22;21086;44.780;17.194;2023-04-25T01:41:29;12.00;99.90
34877;DHT22;21086;44.780;17.194;2023-04-25T01:43:57;11.90;99.90
34877;DHT22;21086;44.780;17.194;2023-04-25T01:46:24;11.90;99.90
34877;DHT22;21086;44.780;17.194;2023-04-25T01:48:51;11.80;99.90
34877;DHT22;21086;44.780;17.194;2023-04-25T01:51:18;11.80;99.90
34877;DHT22;21086;44.780;17.194;2023-04-25T01:53:45;11.80;99.90
34877;DHT22;21086;44.780;17.194;2023-04-25T01:56:12;11.70;99.90
34877;DHT22;21086;44.780;17.194;2023-04-25T01:58:39;11.80;99.90
34877;DHT22;21086;44.780;17.194;2023-04-25T02:01:06;11.80;99.90
34877;DHT22;21086;44.780;17.194;2023-04-25T02:03:34;11.70;99.90
34877;DHT22;21086;44.780;17.194;2023-04-25T02:06:02;11.70;99.90
34877;DHT22;21086;44.780;17.194;2023-04-25T02:08:29;11.70;99.90
34877;DHT22;21086;44.780;17.194;2023-04-25T02:10:57;11.60;99.90
34877;DHT22;21086;44.780;17.194;2023-04-25T02:13:24;11.60;99.90
34877;DHT22;21086;44.780;17.194;2023-04-25T02:15:51;11.60;99.90
34877;DHT22;21086;44.780;17.194;2023-04-25T02:18:18;11.50;99.90
34877;DHT22;21086;44.780;17.194;2023-04-25T02:20:47;11.40;99.90
34877;DHT22;21086;44.780;17.194;2023-04-25T02:23:14;11.40;99.90
34877;DHT22;21086;44.780;17.194;2023-04-25T02:25:42;11.30;99.90
34877;DHT22;21086;44.780;17.194;2023-04-25T02:28:09;11.20;99.90
34877;DHT22;21086;44.780;17.194;2023-04-25T02:30:37;11.10;99.90
34877;DHT22;21086;44.780;17.194;2023-04-25T02:33:04;11.20;99.90
34877;DHT22;21086;44.780;17.194;2023-04-25T02:35:31;11.20;99.90
34877;DHT22;21086;44.780;17.194;2023-04-25T02:37:58;11.20;99.90
34877;DHT22;21086;44.780;17.194;2023-04-25T02:40:25;11.20;99.90
34877;DHT22;21086;44.780;17.194;2023-04-25T02:42:52;11.20;99.90
34877;DHT22;21086;44.780;17.194;2023-04-25T02:45:19;11.20;99.90
34877;DHT22;21086;44.780;17.194;2023-04-25T02:50:31;11.30;99.90
34877;DHT22;21086;44.780;17.194;2023-04-25T02:56:04;11.20;99.90
34877;DHT22;21086;44.780;17.194;2023-04-25T02:58:31;11.20;99.90
34877;DHT22;21086;44.780;17.194;2023-04-25T03:00:58;11.30;99.90
34877;DHT22;21086;44.780;17.194;2023-04-25T03:03:25;11.30;99.90
34877;DHT22;21086;44.780;17.194;2023-04-25T03:05:52;11.30;99.90
34877;DHT22;21086;44.780;17.194;2023-04-25T03:08:19;11.30;99.90
34877;DHT22;21086;44.780;17.194;2023-04-25T03:10:46;11.20;99.90
34877;DHT22;21086;44.780;17.194;2023-04-25T03:13:14;11.10;99.90
34877;DHT22;21086;44.780;17.194;2023-04-25T03:15:41;11.10;99.90
34877;DHT22;21086;44.780;17.194;2023-04-25T03:18:09;11.10;99.90
34877;DHT22;21086;44.780;17.194;2023-04-25T03:20:36;11.00;99.90
34877;DHT22;21086;44.780;17.194;2023-04-25T03:23:03;11.10;99.90
34877;DHT22;21086;44.780;17.194;2023-04-25T03:25:30;11.10;99.90
34877;DHT22;21086;44.780;17.194;2023-04-25T03:27:58;11.10;99.90
34877;DHT22;21086;44.780;17.194;2023-04-25T03:30:25;11.10;99.90
34877;DHT22;21086;44.780;17.194;2023-04-25T03:32:51;11.00;99.90
34877;DHT22;21086;44.780;17.194;2023-04-25T03:35:19;10.90;99.90
34877;DHT22;21086;44.780;17.194;2023-04-25T03:37:45;11.00;99.90
34877;DHT22;21086;44.780;17.194;2023-04-25T03:40:13;11.00;99.90
34877;DHT22;21086;44.780;17.194;2023-04-25T03:42:39;11.10;99.90
34877;DHT22;21086;44.780;17.194;2023-04-25T03:45:09;11.10;99.90
34877;DHT22;21086;44.780;17.194;2023-04-25T03:47:36;11.10;99.90
34877;DHT22;21086;44.780;17.194;2023-04-25T03:50:03;11.10;99.90
34877;DHT22;21086;44.780;17.194;2023-04-25T03:52:32;11.20;99.90
34877;DHT22;21086;44.780;17.194;2023-04-25T03:54:59;11.10;99.90
34877;DHT22;21086;44.780;17.194;2023-04-25T04:00:12;11.20;99.90
34877;DHT22;21086;44.780;17.194;2023-04-25T04:08:38;11.40;99.90
34877;DHT22;21086;44.780;17.194;2023-04-25T04:14:18;11.20;99.90
34877;DHT22;21086;44.780;17.194;2023-04-25T04:16:45;11.10;99.90
34877;DHT22;21086;44.780;17.194;2023-04-25T04:19:12;11.10;99.90
34877;DHT22;21086;44.780;17.194;2023-04-25T04:21:39;11.10;99.90
34877;DHT22;21086;44.780;17.194;2023-04-25T04:24:07;11.20;99.90
34877;DHT22;21086;44.780;17.194;2023-04-25T04:26:34;11.10;99.90
34877;DHT22;21086;44.780;17.194;2023-04-25T04:29:01;11.10;99.90
34877;DHT22;21086;44.780;17.194;2023-04-25T04:31:30;11.10;99.90
34877;DHT22;21086;44.780;17.194;2023-04-25T04:33:57;11.10;99.90
34877;DHT22;21086;44.780;17.194;2023-04-25T04:36:23;11.20;99.90
34877;DHT22;21086;44.780;17.194;2023-04-25T04:38:52;11.30;99.90
34877;DHT22;21086;44.780;17.194;2023-04-25T04:41:20;11.30;99.90
34877;DHT22;21086;44.780;17.194;2023-04-25T04:43:47;11.40;99.90
34877;DHT22;21086;44.780;17.194;2023-04-25T04:46:14;11.40;99.90
34877;DHT22;21086;44.780;17.194;2023-04-25T04:48:41;11.40;99.90
34877;DHT22;21086;44.780;17.194;2023-04-25T04:51:12;11.30;99.90
34877;DHT22;21086;44.780;17.194;2023-04-25T04:53:39;11.40;99.90
34877;DHT22;21086;44.780;17.194;2023-04-25T04:56:07;11.40;99.90
34877;DHT22;21086;44.780;17.194;2023-04-25T04:58:34;11.40;99.90
34877;DHT22;21086;44.780;17.194;2023-04-25T05:01:03;11.50;99.90
34877;DHT22;21086;44.780;17.194;2023-04-25T05:06:37;11.60;99.90
34877;DHT22;21086;44.780;17.194;2023-04-25T05:09:04;11.40;99.90
34877;DHT22;21086;44.780;17.194;2023-04-25T05:11:31;11.30;99.90
34877;DHT22;21086;44.780;17.194;2023-04-25T05:13:58;11.30;99.90
34877;DHT22;21086;44.780;17.194;2023-04-25T05:16:25;11.30;99.90
34877;DHT22;21086;44.780;17.194;2023-04-25T05:18:52;11.40;99.90
34877;DHT22;21086;44.780;17.194;2023-04-25T05:21:19;11.30;99.90
34877;DHT22;21086;44.780;17.194;2023-04-25T05:23:46;11.30;99.90
34877;DHT22;21086;44.780;17.194;2023-04-25T05:26:13;11.20;99.90
34877;DHT22;21086;44.780;17.194;2023-04-25T05:28:41;11.30;99.90
34877;DHT22;21086;44.780;17.194;2023-04-25T05:31:11;11.30;99.90
34877;DHT22;21086;44.780;17.194;2023-04-25T05:33:39;11.40;99.90
34877;DHT22;21086;44.780;17.194;2023-04-25T05:36:06;11.60;99.90
34877;DHT22;21086;44.780;17.194;2023-04-25T05:38:33;11.70;99.90
34877;DHT22;21086;44.780;17.194;2023-04-25T05:41:19;11.80;99.90
34877;DHT22;21086;44.780;17.194;2023-04-25T05:43:47;11.90;99.90
34877;DHT22;21086;44.780;17.194;2023-04-25T05:49:05;11.80;99.90
34877;DHT22;21086;44.780;17.194;2023-04-25T05:51:32;11.80;99.90
34877;DHT22;21086;44.780;17.194;2023-04-25T05:53:59;12.00;99.90
34877;DHT22;21086;44.780;17.194;2023-04-25T05:56:26;12.20;99.90
34877;DHT22;21086;44.780;17.194;2023-04-25T05:58:53;12.30;99.90
34877;DHT22;21086;44.780;17.194;2023-04-25T06:01:22;12.30;99.90
34877;DHT22;21086;44.780;17.194;2023-04-25T06:03:50;12.50;99.90
34877;DHT22;21086;44.780;17.194;2023-04-25T06:06:19;12.80;99.90
34877;DHT22;21086;44.780;17.194;2023-04-25T06:08:46;13.00;99.90
34877;DHT22;21086;44.780;17.194;2023-04-25T06:11:36;13.30;99.90
34877;DHT22;21086;44.780;17.194;2023-04-25T06:14:03;13.50;99.90
34877;DHT22;21086;44.780;17.194;2023-04-25T06:16:31;13.70;99.90
34877;DHT22;21086;44.780;17.194;2023-04-25T06:18:58;13.90;99.90
34877;DHT22;21086;44.780;17.194;2023-04-25T06:21:25;13.90;99.90
34877;DHT22;21086;44.780;17.194;2023-04-25T06:23:52;13.90;99.90
34877;DHT22;21086;44.780;17.194;2023-04-25T06:26:19;14.00;99.90
34877;DHT22;21086;44.780;17.194;2023-04-25T06:28:47;13.80;99.90
34877;DHT22;21086;44.780;17.194;2023-04-25T06:31:14;13.90;99.90
34877;DHT22;21086;44.780;17.194;2023-04-25T06:33:41;13.80;99.90
34877;DHT22;21086;44.780;17.194;2023-04-25T06:38:44;13.70;99.90
34877;DHT22;21086;44.780;17.194;2023-04-25T06:41:11;13.90;99.90
34877;DHT22;21086;44.780;17.194;2023-04-25T06:43:41;13.90;99.90
34877;DHT22;21086;44.780;17.194;2023-04-25T06:46:08;14.00;99.90
34877;DHT22;21086;44.780;17.194;2023-04-25T06:48:35;14.20;99.90
34877;DHT22;21086;44.780;17.194;2023-04-25T06:51:03;14.20;99.90
34877;DHT22;21086;44.780;17.194;2023-04-25T06:53:30;14.60;99.90
34877;DHT22;21086;44.780;17.194;2023-04-25T06:55:57;14.80;99.90
34877;DHT22;21086;44.780;17.194;2023-04-25T06:58:24;14.90;99.90
34877;DHT22;21086;44.780;17.194;2023-04-25T07:00:53;15.10;99.90
34877;DHT22;21086;44.780;17.194;2023-04-25T07:03:20;15.00;99.90
34877;DHT22;21086;44.780;17.194;2023-04-25T07:05:47;15.20;99.90
34877;DHT22;21086;44.780;17.194;2023-04-25T07:08:14;15.40;99.90
34877;DHT22;21086;44.780;17.194;2023-04-25T07:10:41;15.40;99.90
34877;DHT22;21086;44.780;17.194;2023-04-25T07:13:08;15.40;99.90
34877;DHT22;21086;44.780;17.194;2023-04-25T07:15:36;15.10;99.90
34877;DHT22;21086;44.780;17.194;2023-04-25T07:18:03;15.10;99.90
34877;DHT22;21086;44.780;17.194;2023-04-25T07:20:30;15.10;99.90
34877;DHT22;21086;44.780;17.194;2023-04-25T07:22:57;15.10;99.90
34877;DHT22;21086;44.780;17.194;2023-04-25T07:25:24;15.10;99.90
34877;DHT22;21086;44.780;17.194;2023-04-25T07:27:51;15.20;99.90
34877;DHT22;21086;44.780;17.194;2023-04-25T07:30:18;15.30;99.90
34877;DHT22;21086;44.780;17.194;2023-04-25T07:32:46;15.00;99.90
34877;DHT22;21086;44.780;17.194;2023-04-25T07:35:13;15.30;99.90
34877;DHT22;21086;44.780;17.194;2023-04-25T07:37:40;15.60;99.90
34877;DHT22;21086;44.780;17.194;2023-04-25T07:40:08;15.70;99.90
34877;DHT22;21086;44.780;17.194;2023-04-25T07:47:57;15.90;99.90
34877;DHT22;21086;44.780;17.194;2023-04-25T07:50:24;15.60;99.90
34877;DHT22;21086;44.780;17.194;2023-04-25T07:55:27;16.00;99.90
34877;DHT22;21086;44.780;17.194;2023-04-25T07:57:55;14.80;99.90
34877;DHT22;21086;44.780;17.194;2023-04-25T08:00:23;15.90;99.90
34877;DHT22;21086;44.780;17.194;2023-04-25T08:02:50;14.90;99.90
34877;DHT22;21086;44.780;17.194;2023-04-25T08:05:18;16.80;99.90
34877;DHT22;21086;44.780;17.194;2023-04-25T08:07:49;17.00;99.90
34877;DHT22;21086;44.780;17.194;2023-04-25T08:10:16;17.00;99.90
34877;DHT22;21086;44.780;17.194;2023-04-25T08:12:44;17.20;99.90
34877;DHT22;21086;44.780;17.194;2023-04-25T08:15:11;17.40;99.90
34877;DHT22;21086;44.780;17.194;2023-04-25T08:17:40;17.80;99.90
34877;DHT22;21086;44.780;17.194;2023-04-25T08:20:07;18.00;99.90
34877;DHT22;21086;44.780;17.194;2023-04-25T08:22:35;17.60;99.90
34877;DHT22;21086;44.780;17.194;2023-04-25T08:25:03;17.50;99.90
34877;DHT22;21086;44.780;17.194;2023-04-25T08:27:30;17.50;99.90
34877;DHT22;21086;44.780;17.194;2023-04-25T08:29:57;17.70;99.90
34877;DHT22;21086;44.780;17.194;2023-04-25T08:32:25;17.50;99.90
34877;DHT22;21086;44.780;17.194;2023-04-25T08:34:56;17.40;99.90
34877;DHT22;21086;44.780;17.194;2023-04-25T08:37:23;17.40;99.90
34877;DHT22;21086;44.780;17.194;2023-04-25T08:39:50;17.60;99.90
34877;DHT22;21086;44.780;17.194;2023-04-25T08:42:21;17.80;99.90
34877;DHT22;21086;44.780;17.194;2023-04-25T08:47:47;18.30;99.90
34877;DHT22;21086;44.780;17.194;2023-04-25T08:50:17;18.60;99.90
34877;DHT22;21086;44.780;17.194;2023-04-25T08:52:44;18.80;99.90
34877;DHT22;21086;44.780;17.194;2023-04-25T08:55:15;18.90;99.90
34877;DHT22;21086;44.780;17.194;2023-04-25T08:57:42;18.40;99.90
34877;DHT22;21086;44.780;17.194;2023-04-25T09:00:11;18.40;99.90
34877;DHT22;21086;44.780;17.194;2023-04-25T09:02:39;18.70;99.90
34877;DHT22;21086;44.780;17.194;2023-04-25T09:05:07;19.00;99.90
34877;DHT22;21086;44.780;17.194;2023-04-25T09:07:37;19.20;99.90
34877;DHT22;21086;44.780;17.194;2023-04-25T09:10:04;19.20;99.90
34877;DHT22;21086;44.780;17.194;2023-04-25T09:12:31;19.30;99.90
34877;DHT22;21086;44.780;17.194;2023-04-25T09:15:09;19.30;99.90
34877;DHT22;21086;44.780;17.194;2023-04-25T09:17:36;19.30;99.90
34877;DHT22;21086;44.780;17.194;2023-04-25T09:20:09;19.10;99.90
34877;DHT22;21086;44.780;17.194;2023-04-25T09:22:36;18.70;99.90
34877;DHT22;21086;44.780;17.194;2023-04-25T09:25:13;18.90;99.90
34877;DHT22;21086;44.780;17.194;2023-04-25T09:27:50;18.80;99.90
34877;DHT22;21086;44.780;17.194;2023-04-25T09:30:19;18.90;99.90
34877;DHT22;21086;44.780;17.194;2023-04-25T09:32:56;18.60;99.90
34877;DHT22;21086;44.780;17.194;2023-04-25T09:35:25;18.50;99.90
34877;DHT22;21086;44.780;17.194;2023-04-25T09:37:53;18.60;99.90
34877;DHT22;21086;44.780;17.194;2023-04-25T09:40:20;18.80;99.90
34877;DHT22;21086;44.780;17.194;2023-04-25T09:42:47;18.80;99.90
34877;DHT22;21086;44.780;17.194;2023-04-25T09:45:14;18.80;99.90
34877;DHT22;21086;44.780;17.194;2023-04-25T09:47:41;19.10;99.90
34877;DHT22;21086;44.780;17.194;2023-04-25T09:50:14;19.10;99.90
34877;DHT22;21086;44.780;17.194;2023-04-25T09:52:42;18.90;99.90
34877;DHT22;21086;44.780;17.194;2023-04-25T09:55:09;18.80;99.90
34877;DHT22;21086;44.780;17.194;2023-04-25T09:57:36;19.00;99.90
34877;DHT22;21086;44.780;17.194;2023-04-25T10:00:07;18.90;99.90
34877;DHT22;21086;44.780;17.194;2023-04-25T10:02:39;19.20;99.90
34877;DHT22;21086;44.780;17.194;2023-04-25T10:05:10;19.60;99.90
34877;DHT22;21086;44.780;17.194;2023-04-25T10:07:38;20.00;99.90
34877;DHT22;21086;44.780;17.194;2023-04-25T10:10:05;20.40;99.90
34877;DHT22;21086;44.780;17.194;2023-04-25T10:12:33;20.80;99.90
34877;DHT22;21086;44.780;17.194;2023-04-25T10:15:01;21.00;99.90
34877;DHT22;21086;44.780;17.194;2023-04-25T10:17:30;21.10;99.90
34877;DHT22;21086;44.780;17.194;2023-04-25T10:22:46;21.90;99.90
34877;DHT22;21086;44.780;17.194;2023-04-25T10:25:15;22.20;99.90
34877;DHT22;21086;44.780;17.194;2023-04-25T10:27:43;22.10;99.90
34877;DHT22;21086;44.780;17.194;2023-04-25T10:30:13;22.20;99.90
34877;DHT22;21086;44.780;17.194;2023-04-25T10:32:43;21.70;99.90
34877;DHT22;21086;44.780;17.194;2023-04-25T10:35:16;22.10;99.90
34877;DHT22;21086;44.780;17.194;2023-04-25T10:38:04;22.10;99.90
34877;DHT22;21086;44.780;17.194;2023-04-25T10:46:02;21.40;99.90
34877;DHT22;21086;44.780;17.194;2023-04-25T10:48:31;21.40;99.90
34877;DHT22;21086;44.780;17.194;2023-04-25T10:51:12;21.60;99.90
34877;DHT22;21086;44.780;17.194;2023-04-25T10:56:25;21.40;99.90
34877;DHT22;21086;44.780;17.194;2023-04-25T10:59:04;21.40;99.90
34877;DHT22;21086;44.780;17.194;2023-04-25T11:04:05;21.90;99.90
34877;DHT22;21086;44.780;17.194;2023-04-25T11:06:46;22.30;99.90
34877;DHT22;21086;44.780;17.194;2023-04-25T11:09:39;22.60;99.90
34877;DHT22;21086;44.780;17.194;2023-04-25T11:12:10;22.90;99.90
34877;DHT22;21086;44.780;17.194;2023-04-25T11:14:39;23.40;99.90
34877;DHT22;21086;44.780;17.194;2023-04-25T11:17:06;24.10;99.90
34877;DHT22;21086;44.780;17.194;2023-04-25T11:19:33;24.60;99.90
34877;DHT22;21086;44.780;17.194;2023-04-25T11:22:02;24.60;99.90
34877;DHT22;21086;44.780;17.194;2023-04-25T11:24:34;24.10;99.90
34877;DHT22;21086;44.780;17.194;2023-04-25T11:27:02;23.60;99.90
34877;DHT22;21086;44.780;17.194;2023-04-25T11:29:30;23.30;99.90
34877;DHT22;21086;44.780;17.194;2023-04-25T11:31:58;23.30;99.90
34877;DHT22;21086;44.780;17.194;2023-04-25T11:34:29;23.20;99.90
34877;DHT22;21086;44.780;17.194;2023-04-25T11:37:03;23.60;99.90
34877;DHT22;21086;44.780;17.194;2023-04-25T11:39:30;24.80;99.90
34877;DHT22;21086;44.780;17.194;2023-04-25T11:41:58;26.30;99.90
34877;DHT22;21086;44.780;17.194;2023-04-25T11:44:28;26.90;99.90
34877;DHT22;21086;44.780;17.194;2023-04-25T11:46:55;27.90;99.90
34877;DHT22;21086;44.780;17.194;2023-04-25T11:49:22;28.40;99.90
34877;DHT22;21086;44.780;17.194;2023-04-25T11:51:51;28.60;99.90
34877;DHT22;21086;44.780;17.194;2023-04-25T11:54:19;29.40;99.90
34877;DHT22;21086;44.780;17.194;2023-04-25T11:56:46;30.30;99.90
34877;DHT22;21086;44.780;17.194;2023-04-25T11:59:14;30.50;99.90
34877;DHT22;21086;44.780;17.194;2023-04-25T12:01:48;31.30;99.90
34877;DHT22;21086;44.780;17.194;2023-04-25T12:04:18;31.90;99.90
34877;DHT22;21086;44.780;17.194;2023-04-25T12:06:48;31.40;99.90
34877;DHT22;21086;44.780;17.194;2023-04-25T12:09:30;31.40;99.90
34877;DHT22;21086;44.780;17.194;2023-04-25T12:11:59;32.40;99.90
34877;DHT22;21086;44.780;17.194;2023-04-25T12:14:31;33.80;99.90
34877;DHT22;21086;44.780;17.194;2023-04-25T12:17:00;33.30;99.90
34877;DHT22;21086;44.780;17.194;2023-04-25T12:19:35;34.00;99.90
34877;DHT22;21086;44.780;17.194;2023-04-25T12:22:03;34.20;99.90
34877;DHT22;21086;44.780;17.194;2023-04-25T12:24:33;35.30;99.90
34877;DHT22;21086;44.780;17.194;2023-04-25T12:27:06;35.10;99.90
34877;DHT22;21086;44.780;17.194;2023-04-25T12:29:35;35.90;99.90
34877;DHT22;21086;44.780;17.194;2023-04-25T12:32:05;36.50;99.90
34877;DHT22;21086;44.780;17.194;2023-04-25T12:34:32;36.60;99.90
34877;DHT22;21086;44.780;17.194;2023-04-25T12:37:01;36.70;99.90
34877;DHT22;21086;44.780;17.194;2023-04-25T12:39:28;37.30;99.90
34877;DHT22;21086;44.780;17.194;2023-04-25T12:41:55;37.70;99.90
34877;DHT22;21086;44.780;17.194;2023-04-25T12:44:22;38.30;99.90
34877;DHT22;21086;44.780;17.194;2023-04-25T12:46:49;38.00;99.90
34877;DHT22;21086;44.780;17.194;2023-04-25T12:49:17;38.30;99.90
34877;DHT22;21086;44.780;17.194;2023-04-25T12:51:45;38.50;99.90
34877;DHT22;21086;44.780;17.194;2023-04-25T12:54:12;39.10;99.90
34877;DHT22;21086;44.780;17.194;2023-04-25T12:56:41;39.40;99.90
34877;DHT22;21086;44.780;17.194;2023-04-25T12:59:09;39.50;99.90
34877;DHT22;21086;44.780;17.194;2023-04-25T13:01:36;40.10;99.90
34877;DHT22;21086;44.780;17.194;2023-04-25T13:04:03;40.10;99.90
34877;DHT22;21086;44.780;17.194;2023-04-25T13:06:31;40.50;99.90
34877;DHT22;21086;44.780;17.194;2023-04-25T13:08:58;40.00;99.90
34877;DHT22;21086;44.780;17.194;2023-04-25T13:11:25;39.90;99.90
34877;DHT22;21086;44.780;17.194;2023-04-25T13:13:52;39.80;99.90
34877;DHT22;21086;44.780;17.194;2023-04-25T13:16:20;39.80;99.90
34877;DHT22;21086;44.780;17.194;2023-04-25T13:18:48;38.30;99.90
34877;DHT22;21086;44.780;17.194;2023-04-25T13:21:16;36.20;99.90
34877;DHT22;21086;44.780;17.194;2023-04-25T13:23:43;32.80;99.90
34877;DHT22;21086;44.780;17.194;2023-04-25T13:26:11;30.50;99.90
34877;DHT22;21086;44.780;17.194;2023-04-25T13:28:38;32.10;99.90
34877;DHT22;21086;44.780;17.194;2023-04-25T13:31:05;34.70;99.90
34877;DHT22;21086;44.780;17.194;2023-04-25T13:33:32;37.30;99.90
34877;DHT22;21086;44.780;17.194;2023-04-25T13:36:00;39.30;99.90
34877;DHT22;21086;44.780;17.194;2023-04-25T13:38:28;40.10;99.90
34877;DHT22;21086;44.780;17.194;2023-04-25T13:40:55;41.60;99.90
34877;DHT22;21086;44.780;17.194;2023-04-25T13:43:22;42.70;99.90
34877;DHT22;21086;44.780;17.194;2023-04-25T13:45:50;43.40;99.90
34877;DHT22;21086;44.780;17.194;2023-04-25T13:48:18;43.50;99.90
34877;DHT22;21086;44.780;17.194;2023-04-25T13:50:47;45.00;99.90
34877;DHT22;21086;44.780;17.194;2023-04-25T13:53:14;46.10;99.90
34877;DHT22;21086;44.780;17.194;2023-04-25T13:55:41;46.60;99.90
34877;DHT22;21086;44.780;17.194;2023-04-25T13:58:08;45.80;99.90
34877;DHT22;21086;44.780;17.194;2023-04-25T14:00:38;45.60;99.90
34877;DHT22;21086;44.780;17.194;2023-04-25T14:03:06;45.80;99.90
34877;DHT22;21086;44.780;17.194;2023-04-25T14:05:36;46.20;99.90
34877;DHT22;21086;44.780;17.194;2023-04-25T14:08:09;46.30;99.90
34877;DHT22;21086;44.780;17.194;2023-04-25T14:10:36;46.60;99.90
34877;DHT22;21086;44.780;17.194;2023-04-25T14:13:04;47.70;99.90
34877;DHT22;21086;44.780;17.194;2023-04-25T14:15:34;47.70;99.90
34877;DHT22;21086;44.780;17.194;2023-04-25T14:18:02;47.50;99.90
34877;DHT22;21086;44.780;17.194;2023-04-25T14:20:35;47.70;99.90
34877;DHT22;21086;44.780;17.194;2023-04-25T14:23:02;48.00;99.90
34877;DHT22;21086;44.780;17.194;2023-04-25T14:25:30;48.20;99.90
34877;DHT22;21086;44.780;17.194;2023-04-25T14:27:57;48.60;99.90
34877;DHT22;21086;44.780;17.194;2023-04-25T14:30:24;48.30;99.90
34877;DHT22;21086;44.780;17.194;2023-04-25T14:32:51;47.80;99.90
34877;DHT22;21086;44.780;17.194;2023-04-25T14:35:18;48.70;99.90
34877;DHT22;21086;44.780;17.194;2023-04-25T14:37:45;48.50;99.90
34877;DHT22;21086;44.780;17.194;2023-04-25T14:40:13;49.40;99.90
34877;DHT22;21086;44.780;17.194;2023-04-25T14:42:42;49.00;99.90
34877;DHT22;21086;44.780;17.194;2023-04-25T14:45:09;46.20;99.90
34877;DHT22;21086;44.780;17.194;2023-04-25T14:47:37;45.80;99.90
34877;DHT22;21086;44.780;17.194;2023-04-25T14:50:05;46.00;99.90
34877;DHT22;21086;44.780;17.194;2023-04-25T14:52:33;44.50;99.90
34877;DHT22;21086;44.780;17.194;2023-04-25T14:55:00;44.00;99.90
34877;DHT22;21086;44.780;17.194;2023-04-25T14:57:34;44.40;99.90
34877;DHT22;21086;44.780;17.194;2023-04-25T15:00:03;44.90;99.90
34877;DHT22;21086;44.780;17.194;2023-04-25T15:02:33;44.20;99.90
34877;DHT22;21086;44.780;17.194;2023-04-25T15:05:01;41.80;99.90
34877;DHT22;21086;44.780;17.194;2023-04-25T15:07:30;38.70;98.30
34877;DHT22;21086;44.780;17.194;2023-04-25T15:09:57;36.90;97.90
34877;DHT22;21086;44.780;17.194;2023-04-25T15:12:24;36.00;97.80
34877;DHT22;21086;44.780;17.194;2023-04-25T15:14:52;33.50;96.70
34877;DHT22;21086;44.780;17.194;2023-04-25T15:17:19;30.70;96.00
34877;DHT22;21086;44.780;17.194;2023-04-25T15:19:46;28.30;96.50
34877;DHT22;21086;44.780;17.194;2023-04-25T15:22:13;26.80;96.80
34877;DHT22;21086;44.780;17.194;2023-04-25T15:24:41;25.70;97.80
34877;DHT22;21086;44.780;17.194;2023-04-25T15:27:07;25.00;99.10
34877;DHT22;21086;44.780;17.194;2023-04-25T15:29:35;24.40;99.90
34877;DHT22;21086;44.780;17.194;2023-04-25T15:32:03;23.60;99.90
34877;DHT22;21086;44.780;17.194;2023-04-25T15:34:30;23.00;99.90
34877;DHT22;21086;44.780;17.194;2023-04-25T15:36:57;22.60;99.90
34877;DHT22;21086;44.780;17.194;2023-04-25T15:39:24;22.10;99.90
34877;DHT22;21086;44.780;17.194;2023-04-25T15:41:52;21.70;99.90
34877;DHT22;21086;44.780;17.194;2023-04-25T15:44:19;21.30;99.90
34877;DHT22;21086;44.780;17.194;2023-04-25T15:46:46;21.00;99.90
34877;DHT22;21086;44.780;17.194;2023-04-25T15:49:13;20.80;99.90
34877;DHT22;21086;44.780;17.194;2023-04-25T15:51:40;20.60;99.90
34877;DHT22;21086;44.780;17.194;2023-04-25T15:54:07;20.50;99.90
34877;DHT22;21086;44.780;17.194;2023-04-25T15:56:35;20.10;99.90
34877;DHT22;21086;44.780;17.194;2023-04-25T15:59:02;19.90;99.90
34877;DHT22;21086;44.780;17.194;2023-04-25T16:01:30;19.70;99.90
34877;DHT22;21086;44.780;17.194;2023-04-25T16:03:57;19.60;99.90
34877;DHT22;21086;44.780;17.194;2023-04-25T16:06:26;19.70;99.90
34877;DHT22;21086;44.780;17.194;2023-04-25T16:08:53;19.60;99.90
34877;DHT22;21086;44.780;17.194;2023-04-25T16:11:20;19.50;99.90